Time;durP1;ratioP1;P1;durP2;ratioP2;P2;SDS_P1;SDS_P2;PMS_P1;PMS_P2;Temp;Humidity;BMP_temperature;BMP_pressure;BME280_temperature;BME280_humidity;BME280_pressure;Samples;Min_cycle;Max_cycle;Signal;HPM_P1;HPM_P2
2020/12/14 00:00:28;;;;;;;16.10;9.87;;;;;;;5.01;86.39;100435.34;5068734;28;20219;-70
2020/12/14 00:02:54;;;;;;;14.87;10.13;;;;;;;5.03;86.34;100441.41;5066627;28;20669;-70
2020/12/14 00:05:20;;;;;;;14.13;9.43;;;;;;;5.05;86.27;100437.78;5056213;28;20228;-71
2020/12/14 00:07:46;;;;;;;14.20;10.40;;;;;;;5.06;86.38;100422.78;5054282;28;20201;-70
2020/12/14 00:10:13;;;;;;;16.80;10.53;;;;;;;5.09;85.77;100427.94;5055941;28;20205;-70
2020/12/14 00:12:39;;;;;;;12.77;9.33;;;;;;;5.10;85.97;100429.66;5061160;28;20233;-70
2020/12/14 00:15:06;;;;;;;15.43;10.83;;;;;;;5.12;85.95;100441.88;5062388;28;20228;-70
2020/12/14 00:17:33;;;;;;;19.17;13.20;;;;;;;5.12;86.11;100439.22;5056270;28;20280;-70
2020/12/14 00:19:59;;;;;;;14.70;10.50;;;;;;;5.13;85.95;100433.03;5065734;28;20262;-70
2020/12/14 00:22:29;;;;;;;12.77;9.07;;;;;;;5.14;86.24;100447.09;5067694;28;20205;-70
2020/12/14 00:24:55;;;;;;;12.37;8.53;;;;;;;5.14;86.12;100437.38;5066161;28;20334;-71
2020/12/14 00:27:22;;;;;;;11.70;8.70;;;;;;;5.16;85.84;100434.69;5066251;28;20212;-70
2020/12/14 00:29:48;;;;;;;11.63;8.67;;;;;;;5.17;85.80;100428.47;5060250;28;20202;-70
2020/12/14 00:32:14;;;;;;;10.40;8.93;;;;;;;5.19;85.84;100426.63;5071179;28;20228;-70
2020/12/14 00:34:40;;;;;;;13.03;8.53;;;;;;;5.20;85.80;100420.38;5069443;28;20231;-70
2020/12/14 00:37:07;;;;;;;11.70;8.40;;;;;;;5.20;85.62;100423.88;5063903;28;20211;-70
2020/12/14 00:39:33;;;;;;;13.90;8.63;;;;;;;5.21;85.39;100432.66;5067994;28;20549;-70
2020/12/14 00:41:59;;;;;;;12.57;9.37;;;;;;;5.22;85.49;100445.81;5071209;28;20197;-70
2020/12/14 00:44:26;;;;;;;15.40;11.10;;;;;;;5.20;85.37;100447.66;5066748;28;20227;-70
2020/12/14 00:46:52;;;;;;;21.27;12.87;;;;;;;5.22;85.49;100453.72;5055910;28;20209;-70
2020/12/14 00:49:19;;;;;;;14.20;10.53;;;;;;;5.22;85.37;100450.22;5071597;28;20569;-70
2020/12/14 00:51:45;;;;;;;12.97;10.00;;;;;;;5.22;85.13;100451.06;5065763;28;20229;-70
2020/12/14 00:54:11;;;;;;;14.77;10.60;;;;;;;5.21;85.12;100457.28;5068478;28;20231;-71
2020/12/14 00:56:37;;;;;;;12.93;10.60;;;;;;;5.20;85.26;100445.00;5065583;28;20205;-69
2020/12/14 00:59:03;;;;;;;14.03;10.77;;;;;;;5.20;85.08;100442.38;5071762;28;20197;-70
2020/12/14 01:01:31;;;;;;;14.53;10.10;;;;;;;5.19;85.00;100435.41;5072162;28;20212;-69
2020/12/14 01:03:57;;;;;;;15.17;9.07;;;;;;;5.19;84.91;100429.25;5071836;28;20312;-70
2020/12/14 01:06:23;;;;;;;13.23;9.70;;;;;;;5.18;84.86;100427.56;5071176;28;20228;-70
2020/12/14 01:08:50;;;;;;;15.70;10.10;;;;;;;5.16;85.04;100422.34;5071208;28;20306;-70
2020/12/14 01:11:16;;;;;;;14.40;10.00;;;;;;;5.16;84.76;100416.19;5071866;28;20225;-70
2020/12/14 01:13:45;;;;;;;13.43;9.73;;;;;;;5.16;84.77;100418.84;5072031;28;20208;-69
2020/12/14 01:16:11;;;;;;;13.50;10.77;;;;;;;5.15;84.71;100417.13;5070852;28;20300;-70
2020/12/14 01:18:38;;;;;;;16.40;10.87;;;;;;;5.16;84.61;100424.13;5074929;28;20197;-70
2020/12/14 01:21:04;;;;;;;15.13;10.10;;;;;;;5.15;84.94;100427.69;5076044;28;20234;-70
2020/12/14 01:23:30;;;;;;;15.00;10.07;;;;;;;5.13;84.57;100419.81;5075072;28;20222;-69
2020/12/14 01:25:56;;;;;;;14.30;10.70;;;;;;;5.12;84.85;100422.53;5067593;28;20207;-70
2020/12/14 01:28:22;;;;;;;17.13;11.07;;;;;;;5.09;84.49;100418.25;5069539;28;20672;-70
2020/12/14 01:30:48;;;;;;;12.77;10.03;;;;;;;5.06;84.55;100407.81;5075034;28;20217;-69
2020/12/14 01:33:15;;;;;;;15.83;9.87;;;;;;;5.05;84.30;100403.47;5060777;28;20258;-71
2020/12/14 01:35:41;;;;;;;14.97;10.10;;;;;;;5.03;84.39;100401.81;5075416;28;20230;-70
2020/12/14 01:38:07;;;;;;;12.03;9.50;;;;;;;5.01;84.61;100395.78;5074106;28;20580;-69
2020/12/14 01:40:34;;;;;;;13.97;9.60;;;;;;;4.98;83.97;100395.91;5074943;28;20211;-69
2020/12/14 01:43:00;;;;;;;11.17;8.73;;;;;;;4.95;84.45;100386.34;5075141;28;20207;-70
2020/12/14 01:45:29;;;;;;;12.73;9.37;;;;;;;4.92;84.32;100394.38;5060809;28;20225;-69
2020/12/14 01:48:01;;;;;;;10.23;8.40;;;;;;;4.91;84.44;100386.53;5073564;28;20201;-69
2020/12/14 01:50:27;;;;;;;10.83;8.43;;;;;;;4.88;84.40;100392.78;5063702;28;20209;-70
2020/12/14 01:52:58;;;;;;;13.43;8.83;;;;;;;4.85;84.30;100398.19;5074968;28;20689;-69
2020/12/14 01:55:28;;;;;;;9.73;7.87;;;;;;;4.85;84.07;100387.66;5075326;28;20227;-69
2020/12/14 01:57:54;;;;;;;11.67;8.23;;;;;;;4.84;84.07;100378.88;5069444;28;20205;-69
2020/12/14 02:00:20;;;;;;;9.90;7.73;;;;;;;4.82;84.34;100388.66;5067163;28;20687;-69
2020/12/14 02:02:46;;;;;;;11.37;8.57;;;;;;;4.81;83.89;100384.31;5072399;28;20221;-69
2020/12/14 02:05:13;;;;;;;9.67;7.90;;;;;;;4.79;84.06;100386.16;5075049;28;20234;-70
2020/12/14 02:07:39;;;;;;;9.60;7.13;;;;;;;4.77;83.69;100389.78;5074045;28;20205;-70
2020/12/14 02:10:06;;;;;;;11.33;8.63;;;;;;;4.74;83.83;100376.72;5067454;28;20196;-69
2020/12/14 02:12:32;;;;;;;11.57;7.67;;;;;;;4.71;83.88;100385.63;5074588;28;20228;-69
2020/12/14 02:14:59;;;;;;;10.37;8.10;;;;;;;4.67;83.76;100367.34;5074463;28;20216;-69
2020/12/14 02:17:26;;;;;;;11.47;7.67;;;;;;;4.63;83.53;100369.28;5074824;28;20215;-69
2020/12/14 02:19:53;;;;;;;9.07;7.43;;;;;;;4.59;83.61;100369.47;5062178;28;20197;-69
2020/12/14 02:22:20;;;;;;;8.70;6.70;;;;;;;4.54;83.58;100361.75;5074748;28;20197;-69
2020/12/14 02:24:54;;;;;;;9.33;6.80;;;;;;;4.51;83.32;100360.09;5074498;28;20221;-70
2020/12/14 02:27:20;;;;;;;10.97;7.73;;;;;;;4.49;83.76;100367.22;5074640;28;20201;-69
2020/12/14 02:29:47;;;;;;;10.13;7.50;;;;;;;4.48;83.42;100362.88;5073143;28;20548;-69
2020/12/14 02:32:14;;;;;;;8.83;7.13;;;;;;;4.47;83.21;100355.03;5073586;28;20224;-68
2020/12/14 02:34:40;;;;;;;8.47;6.67;;;;;;;4.47;83.57;100349.78;5073455;28;20221;-70
2020/12/14 02:37:08;;;;;;;9.87;6.70;;;;;;;4.46;83.43;100353.34;5070711;22;20230;-68
2020/12/14 02:39:37;;;;;;;8.83;6.33;;;;;;;4.45;83.48;100338.44;5014487;28;20303;-66
2020/12/14 02:42:06;;;;;;;8.97;6.50;;;;;;;4.47;83.51;100333.94;5010975;28;20229;-67
2020/12/14 02:44:32;;;;;;;9.03;5.97;;;;;;;4.48;83.77;100330.34;5013948;28;20213;-66
2020/12/14 02:46:58;;;;;;;8.47;6.30;;;;;;;4.46;83.69;100325.19;5006417;28;20227;-67
2020/12/14 02:49:24;;;;;;;7.33;6.13;;;;;;;4.47;83.70;100318.13;4993812;28;20702;-67
2020/12/14 02:51:50;;;;;;;8.43;6.17;;;;;;;4.49;83.57;100321.53;4993681;28;20235;-67
2020/12/14 02:54:16;;;;;;;8.10;5.90;;;;;;;4.49;83.92;100319.75;4993804;28;20294;-67
2020/12/14 02:56:43;;;;;;;7.53;5.90;;;;;;;4.52;83.82;100305.56;4993397;28;20741;-67
2020/12/14 02:59:10;;;;;;;8.63;6.20;;;;;;;4.54;83.63;100306.38;4994213;28;20208;-66
2020/12/14 03:01:36;;;;;;;6.70;5.40;;;;;;;4.56;83.25;100295.75;4992932;28;20203;-66
2020/12/14 03:04:02;;;;;;;7.07;5.50;;;;;;;4.55;83.53;100292.25;4993932;28;20215;-66
2020/12/14 03:06:28;;;;;;;7.30;5.27;;;;;;;4.58;83.25;100300.03;4994206;28;20571;-66
2020/12/14 03:08:54;;;;;;;8.07;5.83;;;;;;;4.60;83.17;100298.19;4994231;28;20215;-68
2020/12/14 03:11:20;;;;;;;7.17;5.97;;;;;;;4.62;83.28;100308.69;4993253;28;20227;-67
2020/12/14 03:13:46;;;;;;;6.23;5.30;;;;;;;4.63;83.37;100308.63;4993224;28;20207;-67
2020/12/14 03:16:13;;;;;;;8.13;5.60;;;;;;;4.64;83.37;100310.34;4994348;28;20290;-66
2020/12/14 03:18:39;;;;;;;6.77;5.40;;;;;;;4.65;83.14;100305.91;4994060;28;20262;-68
2020/12/14 03:21:06;;;;;;;7.83;5.67;;;;;;;4.66;82.83;100305.81;4993585;28;20199;-66
2020/12/14 03:23:32;;;;;;;6.67;5.27;;;;;;;4.68;82.89;100306.59;4993142;28;20203;-67
2020/12/14 03:25:58;;;;;;;7.43;5.10;;;;;;;4.69;82.93;100308.31;4993618;28;20326;-67
2020/12/14 03:28:24;;;;;;;6.30;5.27;;;;;;;4.71;82.61;100303.84;4993761;28;20702;-67
2020/12/14 03:30:50;;;;;;;6.43;4.80;;;;;;;4.71;83.12;100295.91;4993184;28;20199;-66
2020/12/14 03:33:18;;;;;;;6.07;4.70;;;;;;;4.73;82.79;100302.00;4992829;28;20228;-66
2020/12/14 03:35:45;;;;;;;6.07;5.47;;;;;;;4.74;82.78;100293.16;4993521;28;20214;-67
2020/12/14 03:38:11;;;;;;;6.07;5.20;;;;;;;4.74;82.35;100287.03;4993403;28;20318;-67
2020/12/14 03:40:37;;;;;;;5.70;4.63;;;;;;;4.75;82.43;100284.31;4993081;28;20214;-67
2020/12/14 03:43:03;;;;;;;6.17;5.00;;;;;;;4.76;82.48;100283.41;4992077;28;20208;-67
2020/12/14 03:45:29;;;;;;;6.50;5.53;;;;;;;4.78;82.84;100278.91;4992758;28;20207;-67
2020/12/14 03:47:55;;;;;;;5.90;4.80;;;;;;;4.80;82.76;100279.69;4991656;28;20223;-66
2020/12/14 03:50:22;;;;;;;7.57;5.30;;;;;;;4.82;82.20;100285.75;4992742;28;20211;-66
2020/12/14 03:52:48;;;;;;;7.50;5.30;;;;;;;4.84;82.43;100294.44;4992641;28;20608;-67
2020/12/14 03:55:14;;;;;;;7.07;5.37;;;;;;;4.85;82.17;100290.00;4993143;28;20211;-66
2020/12/14 03:57:40;;;;;;;6.77;5.00;;;;;;;4.86;82.59;100292.59;4992787;28;20227;-66
2020/12/14 04:00:07;;;;;;;7.00;5.40;;;;;;;4.86;82.33;100289.94;4993102;28;20207;-66
2020/12/14 04:02:33;;;;;;;6.23;5.17;;;;;;;4.87;82.07;100283.75;4992798;28;20212;-67
2020/12/14 04:04:59;;;;;;;6.80;4.90;;;;;;;4.88;82.34;100282.81;4992955;28;20207;-67
2020/12/14 04:07:27;;;;;;;5.40;4.90;;;;;;;4.88;82.45;100277.53;4992520;28;20227;-66
2020/12/14 04:09:53;;;;;;;6.20;5.13;;;;;;;4.91;82.04;100275.69;4992845;28;20295;-66
2020/12/14 04:12:19;;;;;;;6.33;5.00;;;;;;;4.91;81.99;100268.63;4991430;28;20231;-67
2020/12/14 04:14:45;;;;;;;8.53;4.57;;;;;;;4.93;82.04;100265.94;4993263;28;20215;-66
2020/12/14 04:17:11;;;;;;;6.60;4.97;;;;;;;4.95;82.23;100264.09;4992652;28;20659;-66
2020/12/14 04:19:37;;;;;;;5.57;4.97;;;;;;;4.96;81.93;100253.47;4992259;28;20582;-67
2020/12/14 04:22:07;;;;;;;7.20;5.10;;;;;;;4.99;81.79;100260.38;4992319;28;20560;-66
2020/12/14 04:24:34;;;;;;;6.67;4.80;;;;;;;5.01;81.70;100258.53;4992615;28;20218;-67
2020/12/14 04:27:01;;;;;;;6.27;5.27;;;;;;;5.03;81.62;100254.00;4993243;28;20227;-67
2020/12/14 04:29:27;;;;;;;7.37;5.43;;;;;;;5.05;81.74;100252.16;4991703;28;20203;-67
2020/12/14 04:31:53;;;;;;;6.70;4.80;;;;;;;5.07;81.31;100255.59;4992202;28;20711;-66
2020/12/14 04:34:19;;;;;;;6.07;4.83;;;;;;;5.09;81.48;100259.00;4992744;28;20203;-67
2020/12/14 04:36:45;;;;;;;6.30;5.17;;;;;;;5.10;81.41;100256.31;4992693;28;20247;-66
2020/12/14 04:39:12;;;;;;;5.73;4.47;;;;;;;5.13;81.38;100255.31;4992252;28;20203;-66
2020/12/14 04:41:39;;;;;;;5.57;4.47;;;;;;;5.16;81.54;100257.81;4991780;28;20210;-67
2020/12/14 04:44:05;;;;;;;6.20;4.40;;;;;;;5.18;81.64;100258.59;4992968;28;20694;-66
2020/12/14 04:46:33;;;;;;;5.53;4.30;;;;;;;5.20;81.33;100257.56;4992797;28;20568;-66
2020/12/14 04:49:00;;;;;;;6.40;4.40;;;;;;;5.22;81.15;100255.72;4992155;28;20587;-66
2020/12/14 04:51:27;;;;;;;6.77;4.33;;;;;;;5.26;81.18;100251.16;4992156;28;20227;-67
2020/12/14 04:53:53;;;;;;;4.30;3.90;;;;;;;5.28;81.08;100259.84;4994535;28;20588;-67
2020/12/14 04:56:26;;;;;;;5.93;3.70;;;;;;;5.29;80.83;100245.72;4996947;28;20206;-66
2020/12/14 04:58:55;;;;;;;6.23;4.20;;;;;;;5.33;80.79;100247.28;4995542;28;20207;-67
2020/12/14 05:01:21;;;;;;;4.03;3.40;;;;;;;5.36;80.66;100251.56;4988387;28;20208;-69
2020/12/14 05:03:47;;;;;;;5.93;4.10;;;;;;;5.40;80.52;100248.69;4989958;28;20216;-67
2020/12/14 05:06:13;;;;;;;5.27;3.30;;;;;;;5.44;80.41;100241.47;4993670;28;20199;-67
2020/12/14 05:08:39;;;;;;;4.23;3.40;;;;;;;5.48;80.30;100232.47;4996185;28;20221;-67
2020/12/14 05:11:05;;;;;;;6.00;3.80;;;;;;;5.52;79.61;100231.41;4995578;28;20230;-67
2020/12/14 05:13:33;;;;;;;4.67;3.47;;;;;;;5.55;79.66;100242.66;4995449;28;20219;-67
2020/12/14 05:16:00;;;;;;;4.67;3.80;;;;;;;5.57;79.75;100232.00;4990970;28;20230;-67
2020/12/14 05:18:27;;;;;;;3.97;3.23;;;;;;;5.61;78.94;100240.66;4995309;28;20207;-67
2020/12/14 05:20:57;;;;;;;3.80;3.40;;;;;;;5.64;79.27;100224.66;4995394;28;20215;-67
2020/12/14 05:23:23;;;;;;;4.33;3.67;;;;;;;5.65;78.59;100219.28;4994892;28;20668;-67
2020/12/14 05:25:50;;;;;;;4.30;3.47;;;;;;;5.65;78.74;100215.78;4995993;28;20204;-68
2020/12/14 05:28:17;;;;;;;3.03;2.70;;;;;;;5.65;78.22;100213.16;4995169;28;20314;-67
2020/12/14 05:30:44;;;;;;;3.83;3.17;;;;;;;5.64;77.96;100219.38;4990953;28;20209;-67
2020/12/14 05:33:12;;;;;;;5.37;3.37;;;;;;;5.64;78.26;100192.94;4993380;28;20223;-67
2020/12/14 05:35:40;;;;;;;3.60;3.00;;;;;;;5.67;77.79;100196.31;4992332;28;20207;-67
2020/12/14 05:38:11;;;;;;;4.33;3.17;;;;;;;5.69;77.47;100197.09;4994727;28;20235;-67
2020/12/14 05:40:37;;;;;;;2.83;2.47;;;;;;;5.73;77.37;100203.06;4989060;28;20583;-67
2020/12/14 05:43:07;;;;;;;4.17;2.80;;;;;;;5.75;76.92;100209.97;4994776;28;20207;-67
2020/12/14 05:45:33;;;;;;;3.70;3.10;;;;;;;5.78;76.66;100224.81;4990839;28;20212;-67
2020/12/14 05:47:59;;;;;;;2.87;2.57;;;;;;;5.78;76.30;100225.66;4988875;28;20224;-67
2020/12/14 05:50:27;;;;;;;3.50;2.80;;;;;;;5.79;76.46;100223.88;4994596;28;20211;-67
2020/12/14 05:52:54;;;;;;;3.57;2.90;;;;;;;5.82;76.19;100221.94;4994496;28;20225;-67
2020/12/14 05:55:22;;;;;;;6.27;2.40;;;;;;;5.84;76.15;100212.16;4995001;28;20598;-67
2020/12/14 05:57:50;;;;;;;4.07;3.00;;;;;;;5.87;76.34;100221.72;4995149;28;20704;-67
2020/12/14 06:00:17;;;;;;;3.53;3.23;;;;;;;5.89;76.28;100225.19;4994828;28;20258;-67
2020/12/14 06:02:43;;;;;;;3.60;3.07;;;;;;;5.89;75.89;100241.03;4994436;28;20200;-67
2020/12/14 06:05:09;;;;;;;4.20;2.80;;;;;;;5.89;75.62;100233.09;4994675;28;20576;-67
2020/12/14 06:07:38;;;;;;;3.63;2.80;;;;;;;5.88;76.06;100240.19;4994625;28;20742;-67
2020/12/14 06:10:09;;;;;;;3.23;2.90;;;;;;;5.90;75.46;100233.03;4994055;28;20220;-67
2020/12/14 06:12:37;;;;;;;3.97;2.80;;;;;;;5.91;75.34;100223.31;4994048;28;20228;-67
2020/12/14 06:15:06;;;;;;;4.33;2.60;;;;;;;5.92;75.36;100220.56;4994693;28;20239;-68
2020/12/14 06:17:33;;;;;;;4.17;3.00;;;;;;;5.90;75.42;100216.31;4995289;28;20236;-67
2020/12/14 06:20:05;;;;;;;5.17;2.80;;;;;;;5.90;75.39;100221.59;4994140;28;20226;-68
2020/12/14 06:22:32;;;;;;;5.53;2.80;;;;;;;5.91;75.57;100221.50;4994487;28;20204;-67
2020/12/14 06:25:02;;;;;;;4.00;2.90;;;;;;;5.90;75.28;100227.75;4994755;28;20458;-68
2020/12/14 06:27:29;;;;;;;3.63;2.93;;;;;;;5.91;75.00;100223.31;4992712;28;20223;-68
2020/12/14 06:29:56;;;;;;;3.37;2.67;;;;;;;5.91;75.08;100220.66;4992952;28;20207;-68
2020/12/14 06:32:38;;;;;;;3.43;2.93;;;;;;;5.90;74.95;100229.53;4993026;28;20223;-67
2020/12/14 06:35:06;;;;;;;3.40;2.43;;;;;;;5.91;74.84;100229.41;4993394;28;20211;-67
2020/12/14 06:37:49;;;;;;;2.83;2.43;;;;;;;5.92;74.90;100225.00;4986438;28;20278;-68
2020/12/14 06:40:17;;;;;;;5.03;3.20;;;;;;;5.93;74.47;100224.06;4977467;28;20214;-69
2020/12/14 06:42:43;;;;;;;3.17;2.60;;;;;;;5.96;74.81;100228.34;4979454;28;20708;-67
2020/12/14 06:45:14;;;;;;;3.23;2.73;;;;;;;5.96;74.60;100223.91;4977275;28;20204;-68
2020/12/14 06:47:43;;;;;;;4.00;2.50;;;;;;;5.98;74.76;100239.69;4974111;28;20353;-68
2020/12/14 06:50:40;;;;;;;3.97;2.77;;;;;;;5.99;74.39;100249.34;4978903;28;20215;-68
2020/12/14 06:53:44;;;;;;;3.90;3.23;;;;;;;6.01;74.15;100244.84;4980334;28;20228;-67
2020/12/14 06:56:13;;;;;;;3.67;2.67;;;;;;;6.01;73.89;100245.69;4989234;28;20196;-67
2020/12/14 06:58:41;;;;;;;4.00;3.00;;;;;;;6.00;74.41;100246.63;4993974;28;20723;-67
2020/12/14 07:01:36;;;;;;;3.80;3.07;;;;;;;6.01;74.21;100243.03;4985531;28;20227;-67
2020/12/14 07:04:05;;;;;;;4.40;2.80;;;;;;;6.00;73.91;100245.75;4993349;28;20314;-67
2020/12/14 07:06:31;;;;;;;3.63;2.90;;;;;;;5.99;73.77;100239.63;4993741;28;20232;-67
2020/12/14 07:08:58;;;;;;;4.30;2.80;;;;;;;6.00;73.92;100243.97;4993955;28;20556;-68
2020/12/14 07:11:26;;;;;;;5.40;2.93;;;;;;;6.00;74.08;100243.97;4992696;28;20227;-67
2020/12/14 07:13:53;;;;;;;4.57;2.67;;;;;;;5.99;73.42;100252.84;4989657;28;20284;-67
2020/12/14 07:16:29;;;;;;;3.33;2.97;;;;;;;5.99;73.98;100249.34;4981435;28;20593;-68
2020/12/14 07:18:55;;;;;;;3.73;2.50;;;;;;;5.99;73.74;100254.63;4993612;28;20208;-68
2020/12/14 07:21:22;;;;;;;6.80;3.00;;;;;;;5.97;73.35;100259.13;4993817;28;20212;-68
2020/12/14 07:23:48;;;;;;;4.77;2.73;;;;;;;5.93;73.96;100253.13;4987506;28;20683;-67
2020/12/14 07:26:15;;;;;;;4.23;2.57;;;;;;;5.92;73.26;100251.41;4980395;28;20210;-67
2020/12/14 07:28:47;;;;;;;3.87;2.97;;;;;;;5.90;73.46;100253.31;4990453;28;20207;-67
2020/12/14 07:31:16;;;;;;;4.13;2.40;;;;;;;5.87;73.78;100249.00;4992534;28;20254;-67
2020/12/14 07:33:52;;;;;;;4.80;2.90;;;;;;;5.85;73.89;100247.38;4991321;28;20220;-68
2020/12/14 07:36:19;;;;;;;5.87;3.30;;;;;;;5.85;73.46;100239.44;4988775;28;20214;-69
2020/12/14 07:38:50;;;;;;;6.07;3.27;;;;;;;5.85;73.33;100223.59;4975004;28;20208;-69
2020/12/14 07:41:16;;;;;;;4.33;2.60;;;;;;;5.82;73.39;100213.16;4981288;28;20294;-66
2020/12/14 07:43:53;;;;;;;3.87;2.77;;;;;;;5.82;73.60;100213.16;4991215;28;20208;-66
2020/12/14 07:46:25;;;;;;;6.20;2.40;;;;;;;5.81;72.98;100216.72;4982249;28;20199;-67
2020/12/14 07:49:10;;;;;;;4.80;3.03;;;;;;;5.80;73.21;100202.66;4987603;28;20296;-68
2020/12/14 07:51:38;;;;;;;3.27;2.70;;;;;;;5.78;73.00;100203.66;4983503;28;20317;-69
2020/12/14 07:54:06;;;;;;;3.60;2.20;;;;;;;5.78;73.21;100201.03;4984635;28;20287;-69
2020/12/14 07:56:40;;;;;;;4.87;2.70;;;;;;;5.78;72.92;100198.38;4999137;28;20231;-68
2020/12/14 07:59:16;;;;;;;5.20;2.20;;;;;;;5.77;72.89;100205.47;4994341;28;20571;-68
2020/12/14 08:01:43;;;;;;;3.73;2.17;;;;;;;5.78;73.08;100186.03;4980023;28;20585;-69
2020/12/14 08:04:09;;;;;;;4.30;2.47;;;;;;;5.82;72.51;100192.88;4991989;28;20661;-69
2020/12/14 08:06:39;;;;;;;4.13;2.43;;;;;;;5.84;72.53;100187.50;4991941;28;20363;-68
2020/12/14 08:09:05;;;;;;;3.27;1.90;;;;;;;5.87;72.32;100190.00;4991114;28;20696;-69
2020/12/14 08:11:32;;;;;;;4.33;2.77;;;;;;;5.91;72.26;100189.78;4978854;28;20204;-67
2020/12/14 08:13:59;;;;;;;4.70;2.47;;;;;;;5.97;72.34;100191.25;4981034;28;20219;-67
2020/12/14 08:16:26;;;;;;;3.47;2.20;;;;;;;6.01;71.87;100194.59;4992355;28;20227;-67
2020/12/14 08:18:56;;;;;;;4.37;1.80;;;;;;;6.07;71.80;100191.66;4985096;28;20211;-67
2020/12/14 08:21:23;;;;;;;4.33;2.17;;;;;;;6.13;71.82;100200.09;4986760;28;20213;-67
2020/12/14 08:23:50;;;;;;;2.97;1.47;;;;;;;6.18;71.29;100208.66;4987324;28;20660;-67
2020/12/14 08:26:23;;;;;;;6.80;2.07;;;;;;;6.25;71.48;100204.78;4991201;28;20204;-67
2020/12/14 08:28:50;;;;;;;3.87;1.73;;;;;;;6.30;71.31;100206.28;4978618;28;20204;-67
2020/12/14 08:31:16;;;;;;;1.97;1.70;;;;;;;6.38;71.09;100201.47;4978628;28;20672;-67
2020/12/14 08:33:50;;;;;;;4.67;1.93;;;;;;;6.45;70.93;100202.84;4973242;28;20323;-65
2020/12/14 08:36:17;;;;;;;3.73;2.03;;;;;;;6.50;70.70;100204.31;4976945;28;20210;-70
2020/12/14 08:38:44;;;;;;;4.30;1.50;;;;;;;6.57;70.18;100196.91;4975337;28;20578;-67
2020/12/14 08:41:12;;;;;;;4.07;1.50;;;;;;;6.65;70.26;100202.63;5009487;22;20233;-66
2020/12/14 08:43:40;;;;;;;2.57;1.43;;;;;;;6.69;70.58;100200.66;5012114;28;20205;-66
2020/12/14 08:46:08;;;;;;;4.10;1.70;;;;;;;6.75;70.37;100203.84;5009490;28;20217;-66
2020/12/14 08:48:43;;;;;;;3.87;1.33;;;;;;;6.78;70.03;100195.75;5015825;28;20209;-66
2020/12/14 08:51:12;;;;;;;3.60;2.07;;;;;;;6.83;70.18;100196.31;5012591;28;20228;-66
2020/12/14 08:53:40;;;;;;;5.27;2.20;;;;;;;6.89;69.81;100197.78;5017480;28;20230;-66
2020/12/14 08:56:07;;;;;;;3.13;1.57;;;;;;;6.94;69.46;100201.03;5025293;28;20670;-66
2020/12/14 08:58:46;;;;;;;2.67;2.10;;;;;;;6.99;68.94;100198.13;5028647;28;20209;-65
2020/12/14 09:01:13;;;;;;;3.67;1.90;;;;;;;7.00;69.21;100178.63;5027803;28;20225;-66
2020/12/14 09:03:50;;;;;;;2.40;1.73;;;;;;;7.05;68.60;100187.19;5025052;28;20680;-66
2020/12/14 09:06:28;;;;;;;3.20;1.90;;;;;;;7.04;68.37;100180.19;5027479;28;20288;-66
2020/12/14 09:08:59;;;;;;;2.37;1.50;;;;;;;7.07;68.64;100194.09;5029261;28;20202;-66
2020/12/14 09:11:28;;;;;;;2.40;1.33;;;;;;;7.11;68.04;100194.78;5026956;28;20234;-66
2020/12/14 09:13:55;;;;;;;3.37;1.43;;;;;;;7.13;68.17;100203.50;5023710;28;20753;-65
2020/12/14 09:16:21;;;;;;;3.90;1.73;;;;;;;7.13;68.76;100208.81;5011640;28;20213;-66
2020/12/14 09:18:47;;;;;;;4.43;1.40;;;;;;;7.16;68.46;100212.16;5011363;28;20211;-67
2020/12/14 09:21:13;;;;;;;1.83;1.23;;;;;;;7.19;68.28;100217.25;5016615;28;20714;-66
2020/12/14 09:23:40;;;;;;;3.33;1.53;;;;;;;7.23;68.05;100229.38;5013409;28;20294;-66
2020/12/14 09:26:06;;;;;;;1.67;1.20;;;;;;;7.27;68.04;100228.28;5019510;28;20222;-66
2020/12/14 09:28:34;;;;;;;3.03;1.50;;;;;;;7.31;67.54;100226.31;5011528;28;20238;-66
2020/12/14 09:31:00;;;;;;;1.90;1.20;;;;;;;7.35;67.79;100226.97;5022853;28;20230;-67
2020/12/14 09:33:26;;;;;;;1.77;1.13;;;;;;;7.37;67.52;100238.34;5025337;28;20610;-67
2020/12/14 09:35:52;;;;;;;2.13;1.40;;;;;;;7.39;67.06;100229.38;5019354;28;20554;-67
2020/12/14 09:38:18;;;;;;;1.53;1.43;;;;;;;7.44;67.36;100237.06;5019296;28;20211;-67
2020/12/14 09:40:50;;;;;;;2.17;1.53;;;;;;;7.45;67.74;100244.91;5025757;28;20229;-66
2020/12/14 09:43:16;;;;;;;4.37;1.73;;;;;;;7.48;66.86;100233.31;5028080;28;20202;-67
2020/12/14 09:45:43;;;;;;;1.97;1.00;;;;;;;7.54;67.18;100249.69;5006206;28;20211;-66
2020/12/14 09:48:09;;;;;;;2.20;1.03;;;;;;;7.56;66.96;100254.91;5020716;28;20209;-67
2020/12/14 09:50:37;;;;;;;1.93;1.00;;;;;;;7.61;66.84;100261.66;5021628;28;20207;-66
2020/12/14 09:53:03;;;;;;;2.43;1.20;;;;;;;7.64;66.99;100255.31;5030812;28;20292;-67
2020/12/14 09:55:29;;;;;;;2.40;1.20;;;;;;;7.67;67.23;100257.81;5013589;28;20214;-67
2020/12/14 09:57:56;;;;;;;1.90;1.50;;;;;;;7.70;66.45;100259.44;5016029;28;20199;-67
2020/12/14 10:00:22;;;;;;;3.43;1.20;;;;;;;7.75;67.29;100237.00;5015151;28;20209;-67
2020/12/14 10:02:48;;;;;;;3.80;2.17;;;;;;;7.80;67.23;100234.09;5022242;28;20218;-68
2020/12/14 10:05:14;;;;;;;2.60;1.60;;;;;;;7.81;66.17;100225.19;5018062;28;20253;-67
2020/12/14 10:07:43;;;;;;;3.23;1.30;;;;;;;7.84;66.06;100217.06;5018353;28;20205;-66
2020/12/14 10:10:09;;;;;;;2.90;1.50;;;;;;;7.87;66.50;100238.09;5016082;28;20226;-66
2020/12/14 10:12:36;;;;;;;2.50;1.27;;;;;;;7.94;66.15;100218.22;5029830;28;20222;-67
2020/12/14 10:15:04;;;;;;;2.37;1.10;;;;;;;7.97;66.53;100208.28;5029755;28;20314;-66
2020/12/14 10:17:30;;;;;;;2.13;1.10;;;;;;;8.04;65.79;100219.38;5023932;28;20689;-66
2020/12/14 10:19:56;;;;;;;3.23;1.20;;;;;;;8.10;66.09;100223.44;5019426;28;20690;-65
2020/12/14 10:22:22;;;;;;;1.33;1.07;;;;;;;8.14;65.51;100223.19;5026146;28;20219;-66
2020/12/14 10:24:48;;;;;;;2.97;1.47;;;;;;;8.16;66.22;100237.22;5025028;28;20210;-67
2020/12/14 10:27:14;;;;;;;2.97;1.50;;;;;;;8.16;65.45;100237.22;5014504;28;20218;-66
2020/12/14 10:29:40;;;;;;;1.17;0.90;;;;;;;8.18;65.93;100245.94;5014609;28;20294;-67
2020/12/14 10:32:07;;;;;;;1.70;1.10;;;;;;;8.18;65.48;100235.31;5005756;28;20230;-65
2020/12/14 10:34:33;;;;;;;1.67;1.20;;;;;;;8.19;66.15;100223.75;5005576;28;20217;-66
2020/12/14 10:36:59;;;;;;;2.20;0.87;;;;;;;8.22;66.21;100236.00;4999218;28;20558;-67
2020/12/14 10:39:25;;;;;;;2.00;1.03;;;;;;;8.23;65.80;100249.16;5002811;28;20211;-67
2020/12/14 10:41:52;;;;;;;1.20;0.80;;;;;;;8.23;65.73;100254.47;4994576;28;20235;-67
2020/12/14 10:44:18;;;;;;;1.53;0.87;;;;;;;8.24;65.46;100260.63;5013414;28;20679;-66
2020/12/14 10:46:44;;;;;;;2.60;1.13;;;;;;;8.26;65.64;100266.69;5012025;28;20679;-67
2020/12/14 10:49:11;;;;;;;3.03;1.93;;;;;;;8.27;66.32;100273.69;5013062;28;20199;-67
2020/12/14 10:51:37;;;;;;;1.63;1.10;;;;;;;8.28;65.38;100265.66;5012227;28;20231;-67
2020/12/14 10:54:03;;;;;;;2.37;0.97;;;;;;;8.29;65.73;100262.06;5012162;28;20703;-67
2020/12/14 10:56:29;;;;;;;1.97;0.90;;;;;;;8.30;65.73;100260.25;5020368;28;20210;-67
2020/12/14 10:58:56;;;;;;;1.63;0.80;;;;;;;8.31;65.98;100262.81;5019458;28;20206;-67
2020/12/14 11:01:22;;;;;;;2.07;0.90;;;;;;;8.33;66.22;100263.59;5026686;28;20226;-67
2020/12/14 11:03:48;;;;;;;1.53;0.80;;;;;;;8.34;66.00;100261.81;5024261;28;20206;-67
2020/12/14 11:06:15;;;;;;;2.03;1.10;;;;;;;8.35;66.46;100258.22;5026532;28;20210;-66
2020/12/14 11:08:41;;;;;;;1.30;0.87;;;;;;;8.35;66.98;100250.25;5028432;28;20202;-67
2020/12/14 11:11:07;;;;;;;1.47;0.90;;;;;;;8.35;66.07;100247.59;5025796;28;20232;-67
2020/12/14 11:13:33;;;;;;;2.60;1.03;;;;;;;8.34;66.74;100237.94;5025072;28;20227;-67
2020/12/14 11:16:00;;;;;;;1.90;1.00;;;;;;;8.35;67.06;100237.84;5020933;28;20199;-67
2020/12/14 11:18:26;;;;;;;1.90;1.10;;;;;;;8.35;67.49;100221.94;5027893;28;20202;-66
2020/12/14 11:20:52;;;;;;;1.20;0.80;;;;;;;8.37;66.81;100236.91;5028959;28;20206;-66
2020/12/14 11:23:19;;;;;;;4.27;1.10;;;;;;;8.35;67.61;100237.84;5027189;28;20194;-67
2020/12/14 11:25:45;;;;;;;1.77;0.80;;;;;;;8.36;67.23;100254.63;5027377;28;20206;-67
2020/12/14 11:28:11;;;;;;;2.17;1.10;;;;;;;8.37;67.94;100256.31;5025035;28;20202;-67
2020/12/14 11:30:37;;;;;;;2.63;1.10;;;;;;;8.37;67.68;100255.47;5025399;28;20209;-67
2020/12/14 11:33:03;;;;;;;1.60;0.80;;;;;;;8.36;67.81;100238.69;5026081;28;20233;-66